Time,TemperatureF,DewpointF,PressureIn,WindDirection,WindDirectionDegrees,WindSpeedMPH,WindSpeedGustMPH,Humidity,HourlyPrecipIn,Conditions,Clouds,dailyrainin,SoftwareType,DateUTC
2013-03-10 00:02:00,40.0,-99.9,-100.00,WNW,295,6.0,8.0,-999,-99.99,,,-99.99,,2013-03-10 08:02:00,
2013-03-10 00:12:00,40.0,-99.9,-100.00,WNW,295,6.0,8.0,-999,-99.99,,,-99.99,,2013-03-10 08:12:00,
2013-03-10 01:02:00,36.0,-99.9,-100.00,SSW,211,1.0,2.0,-999,-99.99,,,-99.99,,2013-03-10 09:02:00,
2013-03-10 01:11:00,36.0,-99.9,-100.00,SSW,211,1.0,2.0,-999,-99.99,,,-99.99,,2013-03-10 09:11:00,
2013-03-10 03:02:00,34.0,-99.9,-100.00,West,275,2.0,5.0,-999,-99.99,,,-99.99,,2013-03-10 10:02:00,
2013-03-10 03:11:00,34.0,-99.9,-100.00,West,275,2.0,5.0,-999,-99.99,,,-99.99,,2013-03-10 10:11:00,
2013-03-10 04:02:00,33.0,-99.9,-100.00,SE,140,3.0,6.0,-999,-99.99,,,-99.99,,2013-03-10 11:02:00,
2013-03-10 04:12:00,33.0,-99.9,-100.00,SE,140,3.0,6.0,-999,-99.99,,,-99.99,,2013-03-10 11:12:00,
2013-03-10 05:02:00,31.0,-99.9,-100.00,SSW,213,3.0,6.0,-999,-99.99,,,-99.99,,2013-03-10 12:02:00,
2013-03-10 05:11:00,31.0,-99.9,-100.00,SSW,213,3.0,6.0,-999,-99.99,,,-99.99,,2013-03-10 12:11:00,
2013-03-10 06:01:00,32.0,-99.9,-100.00,SE,135,2.0,3.0,-999,-99.99,,,-99.99,,2013-03-10 13:01:00,
2013-03-10 06:11:00,32.0,-99.9,-100.00,SE,135,2.0,3.0,-999,-99.99,,,-99.99,,2013-03-10 13:11:00,
2013-03-10 07:02:00,31.0,-99.9,-100.00,NNE,31,3.0,7.0,-999,-99.99,,,-99.99,,2013-03-10 14:02:00,
2013-03-10 07:12:00,31.0,-99.9,-100.00,NNE,31,3.0,7.0,-999,-99.99,,,-99.99,,2013-03-10 14:12:00,
2013-03-10 08:01:00,28.0,-99.9,-100.00,SSW,207,1.0,2.0,-999,-99.99,,,-99.99,,2013-03-10 15:01:00,
2013-03-10 08:11:00,28.0,-99.9,-100.00,SSW,207,1.0,2.0,-999,-99.99,,,-99.99,,2013-03-10 15:11:00,
2013-03-10 09:12:00,35.0,-99.9,-100.00,SE,145,3.0,6.0,-999,-99.99,,,-99.99,,2013-03-10 16:12:00,
2013-03-10 12:02:00,49.0,-99.9,-100.00,SE,124,3.0,5.0,-999,-99.99,,,-99.99,,2013-03-10 19:02:00,
2013-03-10 12:12:00,49.0,-99.9,-100.00,SE,124,3.0,5.0,-999,-99.99,,,-99.99,,2013-03-10 19:12:00,
2013-03-10 15:03:00,53.0,-99.9,-100.00,NNE,21,3.0,7.0,-999,-99.99,,,-99.99,,2013-03-10 22:03:00,
2013-03-10 15:12:00,53.0,-99.9,-100.00,NNE,21,3.0,7.0,-999,-99.99,,,-99.99,,2013-03-10 22:12:00,
2013-03-10 16:03:00,54.0,-99.9,-100.00,NE,53,1.0,2.0,-999,-99.99,,,-99.99,,2013-03-10 23:03:00,
2013-03-10 16:13:00,54.0,-99.9,-100.00,NE,53,1.0,2.0,-999,-99.99,,,-99.99,,2013-03-10 23:13:00,
2013-03-10 17:03:00,54.0,-99.9,-100.00,SSW,208,2.0,6.0,-999,-99.99,,,-99.99,,2013-03-11 00:03:00,
2013-03-10 17:13:00,54.0,-99.9,-100.00,SSW,208,2.0,6.0,-999,-99.99,,,-99.99,,2013-03-11 00:13:00,
2013-03-10 18:03:00,57.0,-99.9,-100.00,SE,139,3.0,7.0,-999,-99.99,,,-99.99,,2013-03-11 01:03:00,
2013-03-10 18:13:00,57.0,-99.9,-100.00,SE,139,3.0,7.0,-999,-99.99,,,-99.99,,2013-03-11 01:13:00,
2013-03-10 19:03:00,54.0,-99.9,-100.00,SE,137,5.0,8.0,-999,-99.99,,,-99.99,,2013-03-11 02:03:00,
2013-03-10 19:13:00,54.0,-99.9,-100.00,SE,137,5.0,8.0,-999,-99.99,,,-99.99,,2013-03-11 02:13:00,
2013-03-10 20:02:00,52.0,-99.9,-100.00,SE,137,3.0,6.0,-999,-99.99,,,-99.99,,2013-03-11 03:02:00,
2013-03-10 20:13:00,52.0,-99.9,-100.00,SE,137,3.0,6.0,-999,-99.99,,,-99.99,,2013-03-11 03:13:00,
2013-03-10 21:03:00,49.0,-99.9,-100.00,West,277,2.0,5.0,-999,-99.99,,,-99.99,,2013-03-11 04:03:00,
2013-03-10 21:12:00,49.0,-99.9,-100.00,West,277,2.0,5.0,-999,-99.99,,,-99.99,,2013-03-11 04:12:00,
2013-03-10 22:04:00,46.0,-99.9,-100.00,NNE,26,3.0,8.0,-999,-99.99,,,-99.99,,2013-03-11 05:04:00,
2013-03-10 22:12:00,46.0,-99.9,-100.00,NNE,26,3.0,8.0,-999,-99.99,,,-99.99,,2013-03-11 05:12:00,
2013-03-10 23:02:00,44.0,-99.9,-100.00,SSE,151,1.0,2.0,-999,-99.99,,,-99.99,,2013-03-11 06:02:00,
2013-03-10 23:12:00,44.0,-99.9,-100.00,SSE,151,1.0,2.0,-999,-99.99,,,-99.99,,2013-03-11 06:12:00,